Time;durP1;ratioP1;P1;durP2;ratioP2;P2;SDS_P1;SDS_P2;PMS_P1;PMS_P2;Temp;Humidity;BMP_temperature;BMP_pressure;BME280_temperature;BME280_humidity;BME280_pressure;Samples;Min_cycle;Max_cycle;Signal;HPM_P1;HPM_P2
2022/08/15 00:02:45;;;;;;;4.97;4.40;;;;;24.30;97880.00;;;;16714568;28;20765;-50
2022/08/15 00:10:48;;;;;;;5.20;4.53;;;;;23.80;97869.00;;;;16717725;28;20210;-49
2022/08/15 00:18:53;;;;;;;7.90;4.93;;;;;23.90;97865.00;;;;16729765;28;20241;-49
2022/08/15 00:26:57;;;;;;;5.00;4.60;;;;;24.20;97852.00;;;;16729948;28;20304;-49
2022/08/15 00:35:02;;;;;;;5.10;4.70;;;;;24.40;97876.00;;;;16729252;28;20305;-49
2022/08/15 00:43:05;;;;;;;6.50;5.03;;;;;25.10;97881.00;;;;16711137;28;20289;-49
2022/08/15 00:51:12;;;;;;;6.37;5.80;;;;;24.00;97885.00;;;;16728685;28;20212;-49
2022/08/15 00:59:17;;;;;;;5.70;5.20;;;;;23.20;97892.00;;;;16728747;28;20249;-49
2022/08/15 01:07:22;;;;;;;6.00;5.60;;;;;22.60;97898.00;;;;16710204;28;20218;-49
2022/08/15 01:15:25;;;;;;;6.50;6.00;;;;;23.80;97904.00;;;;16708468;28;20234;-50
2022/08/15 01:23:36;;;;;;;6.57;5.97;;;;;24.30;97902.00;;;;16724967;28;20210;-50
2022/08/15 01:31:40;;;;;;;6.00;5.50;;;;;24.80;97882.00;;;;16726462;28;20251;-50
2022/08/15 01:39:52;;;;;;;7.20;6.50;;;;;25.00;97891.00;;;;16724271;28;20226;-49
2022/08/15 01:47:59;;;;;;;7.37;6.63;;;;;24.70;97900.00;;;;16708586;28;20317;-49
2022/08/15 01:56:06;;;;;;;5.97;5.40;;;;;24.60;97891.00;;;;16707728;28;20328;-49
2022/08/15 02:04:10;;;;;;;7.00;6.30;;;;;24.90;97892.00;;;;16704428;28;20268;-49
2022/08/15 02:12:19;;;;;;;5.67;5.27;;;;;24.90;97889.00;;;;16723202;28;20194;-48
2022/08/15 02:20:23;;;;;;;6.37;5.87;;;;;24.90;97905.00;;;;16704955;28;20221;-48
2022/08/15 02:28:27;;;;;;;5.93;5.43;;;;;24.80;97893.00;;;;16704209;28;20222;-49
2022/08/15 02:36:35;;;;;;;6.07;5.57;;;;;24.70;97880.00;;;;16703918;28;20677;-49
2022/08/15 02:44:42;;;;;;;6.27;5.57;;;;;25.30;97904.00;;;;16703767;28;20702;-49
2022/08/15 02:52:49;;;;;;;5.20;4.80;;;;;24.20;97912.00;;;;16703833;28;20214;-49
2022/08/15 03:00:53;;;;;;;5.00;4.60;;;;;24.80;97909.00;;;;16720454;28;20228;-49
2022/08/15 03:09:00;;;;;;;5.73;5.27;;;;;24.20;97914.00;;;;16701534;28;20218;-50
2022/08/15 03:17:03;;;;;;;10.40;5.73;;;;;24.60;97919.00;;;;16700752;28;20226;-49
2022/08/15 03:25:09;;;;;;;4.87;4.47;;;;;25.00;97917.00;;;;16724536;22;20237;-50
2022/08/15 03:33:12;;;;;;;5.10;4.70;;;;;24.90;97917.00;;;;16698462;28;20249;-50
2022/08/15 03:41:17;;;;;;;3.97;3.57;;;;;24.70;97926.00;;;;16649662;28;20222;-49
2022/08/15 03:49:20;;;;;;;4.60;3.73;;;;;24.60;97918.00;;;;16637338;28;20325;-50
2022/08/15 03:57:24;;;;;;;4.90;4.40;;;;;24.90;97917.00;;;;16645700;28;20227;-49
2022/08/15 04:05:27;;;;;;;4.80;4.40;;;;;24.40;97918.00;;;;16664039;28;20626;-49
2022/08/15 04:13:32;;;;;;;4.97;3.60;;;;;24.60;97919.00;;;;16667280;28;20690;-50
2022/08/15 04:21:34;;;;;;;4.77;4.30;;;;;24.50;97921.00;;;;16710397;28;20202;-50
2022/08/15 04:29:39;;;;;;;4.50;3.33;;;;;24.50;97918.00;;;;16710233;28;20277;-49
2022/08/15 04:37:42;;;;;;;4.97;3.73;;;;;24.30;97908.00;;;;16709247;28;20230;-50
2022/08/15 04:45:46;;;;;;;4.33;3.53;;;;;24.30;97931.00;;;;16700805;28;20322;-50
2022/08/15 04:53:49;;;;;;;6.50;4.60;;;;;24.30;97933.00;;;;16610163;28;20215;-50
2022/08/15 05:01:53;;;;;;;5.10;4.20;;;;;23.90;97944.00;;;;16594528;28;20198;-49
2022/08/15 05:09:56;;;;;;;4.13;3.80;;;;;23.60;97936.00;;;;16594790;28;20216;-49
2022/08/15 05:18:03;;;;;;;4.70;4.00;;;;;24.00;97945.00;;;;16576293;28;20587;-49
2022/08/15 05:26:07;;;;;;;3.93;3.53;;;;;23.90;97935.00;;;;16575275;28;20304;-50
2022/08/15 05:34:15;;;;;;;3.80;3.40;;;;;23.40;97945.00;;;;16574293;28;20227;-49
2022/08/15 05:42:35;;;;;;;4.40;4.10;;;;;23.60;97939.00;;;;16574791;28;20273;-48
2022/08/15 05:50:51;;;;;;;4.00;3.27;;;;;23.70;97936.00;;;;16574287;28;20298;-49
2022/08/15 05:58:56;;;;;;;3.57;3.27;;;;;23.80;97923.00;;;;16621157;28;20647;-50
2022/08/15 06:07:05;;;;;;;2.97;2.73;;;;;24.00;97913.00;;;;16639105;28;20400;-49
2022/08/15 06:15:14;;;;;;;3.97;2.83;;;;;24.10;97909.00;;;;16637348;28;20360;-49
2022/08/15 06:23:38;;;;;;;3.07;2.60;;;;;24.00;97917.00;;;;16636986;28;20199;-49
2022/08/15 06:31:48;;;;;;;5.10;3.40;;;;;23.90;97941.00;;;;16637531;28;20229;-48
2022/08/15 06:40:05;;;;;;;3.13;2.80;;;;;24.50;97947.00;;;;16636764;28;20692;-50
2022/08/15 06:48:15;;;;;;;4.60;3.53;;;;;23.50;97955.00;;;;16635391;28;20217;-50
2022/08/15 06:56:25;;;;;;;3.93;2.93;;;;;23.30;97961.00;;;;16635707;28;20237;-49
2022/08/15 07:04:38;;;;;;;7.27;3.87;;;;;23.90;97954.00;;;;16634843;28;20215;-48
2022/08/15 07:12:50;;;;;;;5.67;3.50;;;;;23.60;97962.00;;;;16634597;28;20660;-48
2022/08/15 07:21:00;;;;;;;2.97;2.67;;;;;25.40;97952.00;;;;16634176;28;20230;-48
2022/08/15 07:29:12;;;;;;;3.93;2.90;;;;;24.40;97946.00;;;;16633630;28;20274;-50
2022/08/15 07:37:22;;;;;;;3.40;3.10;;;;;24.00;97951.00;;;;16633841;28;20233;-49
2022/08/15 07:45:31;;;;;;;3.83;2.83;;;;;24.30;97951.00;;;;16632926;28;20217;-49
2022/08/15 07:53:50;;;;;;;4.10;2.60;;;;;24.00;97959.00;;;;16632161;28;20214;-50
2022/08/15 08:02:04;;;;;;;7.00;3.20;;;;;25.20;97957.00;;;;16633025;28;20253;-49
2022/08/15 08:10:15;;;;;;;3.00;2.43;;;;;24.80;97952.00;;;;16650026;28;20207;-50
2022/08/15 08:18:33;;;;;;;2.27;2.13;;;;;26.00;97964.00;;;;16631603;28;20235;-49
2022/08/15 08:26:41;;;;;;;2.90;2.33;;;;;25.30;97946.00;;;;16649446;28;20307;-50
2022/08/15 08:34:52;;;;;;;2.47;2.10;;;;;26.30;97949.00;;;;16635412;28;20241;-50
2022/08/15 08:43:01;;;;;;;3.13;2.17;;;;;24.70;97965.00;;;;16661487;28;20297;-49
2022/08/15 08:51:14;;;;;;;3.33;2.20;;;;;26.10;97953.00;;;;16660729;28;20305;-49
2022/08/15 08:59:23;;;;;;;3.10;2.50;;;;;25.90;97953.00;;;;16660640;28;20214;-49
2022/08/15 09:07:32;;;;;;;2.03;1.70;;;;;26.10;97948.00;;;;16659633;28;20333;-49
2022/08/15 09:15:36;;;;;;;2.47;2.00;;;;;26.90;97962.00;;;;16658935;28;20643;-49
2022/08/15 09:23:42;;;;;;;3.23;2.07;;;;;26.80;97946.00;;;;16658506;28;20210;-50
2022/08/15 09:31:53;;;;;;;2.20;1.83;;;;;26.70;97950.00;;;;16862264;22;20259;-48
2022/08/15 09:40:12;;;;;;;2.00;1.70;;;;;28.20;97929.00;;;;16854644;28;20225;-49
2022/08/15 09:48:42;;;;;;;2.70;2.07;;;;;26.50;97934.00;;;;16861065;28;20217;-48
2022/08/15 09:56:49;;;;;;;2.50;2.20;;;;;26.70;97918.00;;;;16857314;28;20256;-49
2022/08/15 10:05:12;;;;;;;2.60;2.40;;;;;28.20;97921.00;;;;16858234;28;20654;-49
2022/08/15 10:13:40;;;;;;;3.60;2.70;;;;;27.30;97909.00;;;;16856288;28;20291;-49
2022/08/15 10:21:48;;;;;;;3.03;2.77;;;;;28.60;97898.00;;;;16852765;28;20243;-49
2022/08/15 10:30:10;;;;;;;3.20;2.90;;;;;27.30;97903.00;;;;16856231;28;20668;-48
2022/08/15 10:38:19;;;;;;;3.07;2.77;;;;;28.30;97903.00;;;;16854719;28;20638;-49
2022/08/15 10:46:38;;;;;;;3.57;3.27;;;;;29.10;97882.00;;;;16854084;28;20799;-48
2022/08/15 10:54:59;;;;;;;3.70;3.33;;;;;29.20;97888.00;;;;16853016;28;20216;-50
2022/08/15 11:03:08;;;;;;;4.03;3.00;;;;;29.80;97877.00;;;;16852853;28;20197;-49
2022/08/15 11:11:12;;;;;;;2.60;2.40;;;;;29.60;97879.00;;;;16853509;28;20213;-50
2022/08/15 11:19:21;;;;;;;3.30;3.00;;;;;29.60;97875.00;;;;16853307;28;20604;-49
2022/08/15 11:27:25;;;;;;;5.73;3.10;;;;;30.10;97865.00;;;;16852639;28;20224;-48
2022/08/15 11:35:31;;;;;;;3.20;2.90;;;;;32.20;97854.00;;;;16851659;28;20232;-49
2022/08/15 11:43:34;;;;;;;4.80;2.80;;;;;32.10;97854.00;;;;16852093;28;20193;-49
2022/08/15 11:51:41;;;;;;;2.53;2.30;;;;;30.00;97848.00;;;;16851404;28;20212;-49
2022/08/15 11:59:59;;;;;;;2.90;2.60;;;;;31.40;97854.00;;;;16851269;28;20232;-48
2022/08/15 12:08:06;;;;;;;2.67;2.47;;;;;32.70;97839.00;;;;16852300;28;20307;-49
2022/08/15 12:16:12;;;;;;;4.90;2.73;;;;;32.50;97829.00;;;;16866318;28;20225;-49
2022/08/15 12:24:22;;;;;;;2.67;2.47;;;;;34.60;97828.00;;;;16863574;28;20201;-49
2022/08/15 12:32:27;;;;;;;2.90;2.43;;;;;31.70;97842.00;;;;16863815;28;20188;-47
2022/08/15 12:40:30;;;;;;;3.00;2.73;;;;;29.80;97831.00;;;;16863028;28;20767;-49
2022/08/15 12:48:34;;;;;;;5.00;2.60;;;;;32.30;97830.00;;;;16861644;28;20589;-50
2022/08/15 12:56:40;;;;;;;2.10;2.00;;;;;33.50;97828.00;;;;16862284;28;20408;-49
2022/08/15 13:04:46;;;;;;;2.50;2.30;;;;;33.40;97824.00;;;;16860639;28;20223;-48
2022/08/15 13:12:50;;;;;;;3.00;2.70;;;;;32.90;97824.00;;;;16860353;28;20298;-50
2022/08/15 13:29:18;;;;;;;4.00;2.83;;;;;32.90;97820.00;;;;16859636;28;20225;-48
2022/08/15 13:37:23;;;;;;;5.57;2.77;;;;;33.50;97804.00;;;;16859995;28;20224;-49
2022/08/15 13:45:27;;;;;;;3.40;3.10;;;;;30.20;97779.00;;;;16858530;28;20299;-48
2022/08/15 13:53:29;;;;;;;2.93;2.70;;;;;32.00;97800.00;;;;16858688;28;20197;-48
2022/08/15 14:01:34;;;;;;;3.10;2.80;;;;;32.50;97796.00;;;;16856496;28;20748;-48
2022/08/15 14:09:38;;;;;;;3.40;2.70;;;;;32.50;97782.00;;;;16856795;28;20205;-48
2022/08/15 14:17:46;;;;;;;3.37;2.70;;;;;32.50;97788.00;;;;16855684;28;20228;-48
2022/08/15 14:25:52;;;;;;;3.30;3.00;;;;;32.90;97762.00;;;;16856384;28;20634;-49
2022/08/15 14:33:56;;;;;;;3.50;3.20;;;;;29.90;97789.00;;;;16856314;28;20204;-48
2022/08/15 14:41:58;;;;;;;3.07;2.77;;;;;28.60;97808.00;;;;16856296;28;20244;-48
2022/08/15 14:50:03;;;;;;;3.33;3.03;;;;;27.50;97835.00;;;;16855038;28;20219;-48
2022/08/15 14:58:06;;;;;;;5.07;4.57;;;;;25.90;97870.00;;;;16853395;28;20220;-48
2022/08/15 15:06:10;;;;;;;3.17;2.87;;;;;25.00;97893.00;;;;16854820;28;20232;-49
2022/08/15 15:14:13;;;;;;;4.97;3.50;;;;;24.90;97945.00;;;;16853248;28;20288;-49
2022/08/15 15:22:20;;;;;;;5.10;3.43;;;;;25.00;97980.00;;;;16854354;28;20570;-50
2022/08/15 15:30:23;;;;;;;2.97;2.77;;;;;24.90;98001.00;;;;16826367;22;20233;-50
2022/08/15 15:38:26;;;;;;;3.97;2.90;;;;;25.20;98000.00;;;;16778536;28;20310;-51
2022/08/15 15:46:29;;;;;;;2.27;2.07;;;;;25.70;98001.00;;;;16790261;28;20227;-51
2022/08/15 15:54:35;;;;;;;2.53;2.30;;;;;24.90;97993.00;;;;16782523;28;20286;-51
2022/08/15 16:02:40;;;;;;;4.10;2.80;;;;;26.20;97974.00;;;;16782117;28;20307;-50
2022/08/15 16:10:48;;;;;;;2.73;2.50;;;;;26.90;97987.00;;;;16783132;28;20309;-51
2022/08/15 16:18:55;;;;;;;3.53;2.90;;;;;28.20;97994.00;;;;16781000;28;20367;-51
2022/08/15 16:27:10;;;;;;;3.90;2.97;;;;;29.00;97984.00;;;;16782157;28;20760;-51
2022/08/15 16:35:16;;;;;;;3.80;2.23;;;;;30.60;97992.00;;;;16781420;28;20312;-51
2022/08/15 16:43:24;;;;;;;2.77;2.57;;;;;32.30;97992.00;;;;16781444;28;20288;-52
2022/08/15 16:51:33;;;;;;;4.07;3.23;;;;;31.30;98003.00;;;;16779321;28;20713;-52
2022/08/15 16:59:42;;;;;;;2.97;2.67;;;;;30.40;97996.00;;;;16790860;28;20240;-51
2022/08/15 17:07:51;;;;;;;3.00;2.50;;;;;30.30;98003.00;;;;16792045;28;20776;-51
2022/08/15 17:16:08;;;;;;;3.83;3.00;;;;;28.90;97994.00;;;;16791872;28;20586;-49
2022/08/15 17:24:28;;;;;;;4.57;2.77;;;;;29.70;97992.00;;;;16791743;28;20717;-49
2022/08/15 17:32:32;;;;;;;3.00;2.70;;;;;28.60;97987.00;;;;16790393;28;20221;-49
2022/08/15 17:40:39;;;;;;;2.80;2.33;;;;;29.90;97985.00;;;;16791411;28;20280;-50
2022/08/15 17:48:46;;;;;;;1.57;1.47;;;;;32.20;97998.00;;;;16788374;28;20223;-50
2022/08/15 17:56:51;;;;;;;2.10;1.90;;;;;30.40;98014.00;;;;16788610;28;20235;-49
2022/08/15 18:04:55;;;;;;;3.20;1.80;;;;;28.70;98024.00;;;;16788212;28;20300;-49
2022/08/15 18:12:59;;;;;;;1.90;1.80;;;;;27.90;98028.00;;;;16788634;28;20201;-48
2022/08/15 18:21:12;;;;;;;1.77;1.67;;;;;27.50;98042.00;;;;16787297;28;20235;-49
2022/08/15 18:29:18;;;;;;;2.23;1.70;;;;;28.20;98046.00;;;;16787135;28;20227;-47
2022/08/15 18:37:24;;;;;;;1.60;1.50;;;;;26.80;98055.00;;;;16786729;28;20252;-49
2022/08/15 18:45:30;;;;;;;3.20;1.90;;;;;26.30;98062.00;;;;16786615;28;20225;-49
2022/08/15 18:53:48;;;;;;;2.30;2.10;;;;;26.10;98064.00;;;;16786905;28;20224;-49
2022/08/15 19:01:54;;;;;;;1.70;1.60;;;;;26.10;98074.00;;;;16786865;28;20697;-49
2022/08/15 19:10:01;;;;;;;3.17;1.90;;;;;25.90;98078.00;;;;16786324;28;20715;-48
2022/08/15 19:18:14;;;;;;;2.40;2.20;;;;;25.50;98105.00;;;;16784576;28;20221;-48
2022/08/15 19:26:23;;;;;;;3.10;2.37;;;;;23.40;98118.00;;;;16784179;28;20740;-48
2022/08/15 19:34:37;;;;;;;4.50;2.37;;;;;22.90;98129.00;;;;16785345;28;20706;-49
2022/08/15 19:42:46;;;;;;;3.50;2.50;;;;;22.50;98128.00;;;;16785357;28;20643;-48
2022/08/15 19:59:30;;;;;;;1.97;1.87;;;;;22.40;98138.00;;;;16705383;28;20221;-48
2022/08/15 20:07:37;;;;;;;6.37;3.47;;;;;23.10;98131.00;;;;16782449;28;20704;-49
2022/08/15 20:15:52;;;;;;;4.27;2.50;;;;;22.00;98145.00;;;;16780733;28;20221;-50
2022/08/15 20:24:01;;;;;;;3.37;2.27;;;;;22.20;98153.00;;;;16781553;28;20599;-49
2022/08/15 20:32:09;;;;;;;3.70;2.47;;;;;21.50;98160.00;;;;16788032;28;20375;-50
2022/08/15 20:40:16;;;;;;;4.50;2.83;;;;;21.50;98174.00;;;;16794833;28;20225;-50
2022/08/15 20:48:26;;;;;;;3.07;2.73;;;;;22.40;98171.00;;;;16792122;28;20313;-49
2022/08/15 20:56:29;;;;;;;2.70;2.50;;;;;22.10;98167.00;;;;16793084;28;20229;-49
2022/08/15 21:04:33;;;;;;;9.50;3.93;;;;;23.00;98169.00;;;;16792375;28;20189;-49
2022/08/15 21:12:47;;;;;;;4.70;4.20;;;;;22.80;98185.00;;;;16791820;28;20209;-49
2022/08/15 21:21:04;;;;;;;5.80;4.33;;;;;22.50;98188.00;;;;16792551;28;20563;-49
2022/08/15 21:29:09;;;;;;;5.53;5.00;;;;;22.20;98206.00;;;;16807550;22;20260;-86
2022/08/15 21:37:14;;;;;;;6.23;4.77;;;;;22.40;98217.00;;;;16801880;22;20252;31
2022/08/15 21:45:39;;;;;;;5.77;4.80;;;;;22.60;98222.00;;;;16721094;28;20222;-48
2022/08/15 21:53:43;;;;;;;5.60;4.43;;;;;22.20;98231.00;;;;16724225;28;20291;-47
2022/08/15 22:02:02;;;;;;;5.73;4.73;;;;;22.30;98232.00;;;;16724438;28;20236;-48
2022/08/15 22:10:05;;;;;;;4.00;3.53;;;;;20.90;98243.00;;;;16725216;28;20228;-48
2022/08/15 22:18:09;;;;;;;4.77;4.10;;;;;21.10;98240.00;;;;16722911;28;20376;-48
2022/08/15 22:26:15;;;;;;;4.33;3.93;;;;;20.10;98242.00;;;;16723974;28;20309;-48
2022/08/15 22:34:20;;;;;;;4.40;3.40;;;;;20.20;98233.00;;;;16722615;28;20731;-47
2022/08/15 22:42:28;;;;;;;6.20;3.43;;;;;21.00;98239.00;;;;16721544;28;20737;-47
2022/08/15 22:50:32;;;;;;;4.07;3.53;;;;;20.90;98238.00;;;;16721063;28;20222;-47
2022/08/15 22:58:35;;;;;;;4.53;4.23;;;;;20.20;98238.00;;;;16720798;28;20676;-48
2022/08/15 23:06:45;;;;;;;3.90;3.60;;;;;20.60;98225.00;;;;16721343;28;20300;-48
2022/08/15 23:14:49;;;;;;;4.23;3.83;;;;;20.80;98217.00;;;;16720011;28;20196;-48
2022/08/15 23:22:54;;;;;;;4.30;3.33;;;;;21.00;98214.00;;;;16719320;28;20222;-48
2022/08/15 23:30:57;;;;;;;6.93;5.50;;;;;21.90;98201.00;;;;16719165;28;20209;-48
2022/08/15 23:39:03;;;;;;;5.50;4.90;;;;;21.80;98204.00;;;;16718334;28;20225;-48
2022/08/15 23:47:05;;;;;;;5.57;5.00;;;;;22.30;98198.00;;;;16718376;28;20225;-48
2022/08/15 23:55:13;;;;;;;6.47;5.57;;;;;22.20;98202.00;;;;16715844;28;20205;-48
